createdAt,value
2018-10-07T00:00:01.054Z,18.40
2018-10-07T00:01:03.266Z,18.30
2018-10-07T00:02:05.425Z,18.30
2018-10-07T00:03:07.629Z,18.30
2018-10-07T00:04:09.877Z,18.30
2018-10-07T00:05:12.049Z,18.30
2018-10-07T00:06:14.201Z,18.30
2018-10-07T00:07:16.408Z,18.30
2018-10-07T00:08:18.637Z,18.40
2018-10-07T00:09:20.884Z,18.40
2018-10-07T00:10:23.085Z,18.40
2018-10-07T00:11:25.255Z,18.40
2018-10-07T00:12:27.505Z,18.50
2018-10-07T00:13:29.737Z,18.40
2018-10-07T00:14:32.312Z,18.50
2018-10-07T00:15:34.499Z,18.50
2018-10-07T00:16:36.664Z,18.40
2018-10-07T00:17:38.862Z,18.40
2018-10-07T00:18:41.067Z,18.40
2018-10-07T00:19:43.318Z,18.40
2018-10-07T00:20:45.489Z,18.40
2018-10-07T00:21:47.701Z,18.40
2018-10-07T00:22:49.889Z,18.40
2018-10-07T00:23:52.273Z,18.40
2018-10-07T00:24:54.507Z,18.40
2018-10-07T00:25:56.695Z,18.40
2018-10-07T00:26:58.881Z,18.40
2018-10-07T00:28:01.149Z,18.40
2018-10-07T00:29:03.622Z,18.40
2018-10-07T00:30:05.874Z,18.30
2018-10-07T00:31:08.070Z,18.30
2018-10-07T00:32:13.997Z,18.30
2018-10-07T00:33:16.165Z,18.30
2018-10-07T00:34:18.392Z,18.30
2018-10-07T00:35:20.661Z,18.30
2018-10-07T00:36:24.107Z,18.30
2018-10-07T00:37:26.457Z,18.30
2018-10-07T00:38:28.618Z,18.20
2018-10-07T00:39:30.851Z,18.30
2018-10-07T00:40:33.018Z,18.30
2018-10-07T00:41:35.224Z,18.30
2018-10-07T00:42:37.426Z,18.30
2018-10-07T00:43:39.661Z,18.30
2018-10-07T00:44:41.842Z,18.30
2018-10-07T00:45:44.027Z,18.30
2018-10-07T00:46:46.225Z,18.30
2018-10-07T00:47:48.476Z,18.30
2018-10-07T00:48:50.654Z,18.30
2018-10-07T00:49:52.824Z,18.40
2018-10-07T00:50:54.986Z,18.40
2018-10-07T00:51:57.367Z,18.40
2018-10-07T00:52:59.569Z,18.40
2018-10-07T00:54:01.876Z,18.40
2018-10-07T00:55:04.196Z,18.40
2018-10-07T00:56:06.551Z,18.40
2018-10-07T00:57:08.809Z,18.40
2018-10-07T00:58:11.029Z,18.30
2018-10-07T00:59:13.189Z,18.30
2018-10-07T01:00:15.357Z,18.30
2018-10-07T01:01:17.561Z,18.30
2018-10-07T01:02:19.747Z,18.30
2018-10-07T01:03:21.978Z,18.30
2018-10-07T01:04:24.227Z,18.30
2018-10-07T01:05:26.550Z,18.30
2018-10-07T01:06:28.733Z,18.30
2018-10-07T01:07:30.939Z,18.30
2018-10-07T01:08:33.124Z,18.30
2018-10-07T01:09:35.362Z,18.30
2018-10-07T01:10:37.536Z,18.30
2018-10-07T01:11:40.047Z,18.30
2018-10-07T01:12:42.340Z,18.30
2018-10-07T01:13:44.501Z,18.30
2018-10-07T01:14:46.727Z,18.20
2018-10-07T01:15:48.914Z,18.30
2018-10-07T01:16:51.122Z,18.30
2018-10-07T01:17:53.318Z,18.30
2018-10-07T01:18:55.539Z,18.30
2018-10-07T01:19:57.809Z,18.30
2018-10-07T01:21:00.106Z,18.30
2018-10-07T01:22:02.339Z,18.30
2018-10-07T01:23:04.621Z,18.20
2018-10-07T01:24:06.978Z,18.20
2018-10-07T01:25:09.190Z,18.20
2018-10-07T01:26:11.433Z,18.30
2018-10-07T01:27:13.611Z,18.30
2018-10-07T01:28:15.810Z,18.30
2018-10-07T01:29:18.010Z,18.30
2018-10-07T01:30:23.226Z,18.30
2018-10-07T01:31:25.513Z,18.30
2018-10-07T01:32:27.726Z,18.30
2018-10-07T01:33:29.901Z,18.30
2018-10-07T01:34:32.136Z,18.30
2018-10-07T01:35:34.354Z,18.30
2018-10-07T01:36:36.555Z,18.30
2018-10-07T01:37:38.746Z,18.30
2018-10-07T01:38:40.973Z,18.30
2018-10-07T01:39:43.177Z,18.30
2018-10-07T01:40:45.379Z,18.30
2018-10-07T01:41:47.542Z,18.30
2018-10-07T01:42:49.709Z,18.30
2018-10-07T01:43:51.873Z,18.30
2018-10-07T01:44:54.138Z,18.30
2018-10-07T01:45:56.425Z,18.30
2018-10-07T01:46:58.609Z,18.30
2018-10-07T01:48:00.822Z,18.30
2018-10-07T01:49:03.078Z,18.30
2018-10-07T01:50:05.822Z,18.30
2018-10-07T01:51:08.039Z,18.30
2018-10-07T01:52:10.341Z,18.20
2018-10-07T01:53:12.708Z,18.20
2018-10-07T01:54:14.853Z,18.20
2018-10-07T01:55:17.106Z,18.20
2018-10-07T01:56:19.279Z,18.20
2018-10-07T01:57:21.455Z,18.20
2018-10-07T01:58:23.673Z,18.20
2018-10-07T01:59:26.049Z,18.20
2018-10-07T02:00:28.193Z,18.20
2018-10-07T02:01:30.425Z,18.20
2018-10-07T02:02:32.603Z,18.20
2018-10-07T02:03:34.765Z,18.20
2018-10-07T02:04:36.978Z,18.20
2018-10-07T02:05:39.153Z,18.20
2018-10-07T02:06:41.324Z,18.20
2018-10-07T02:07:43.530Z,18.20
2018-10-07T02:08:45.776Z,18.30
2018-10-07T02:09:48.087Z,18.20
2018-10-07T02:10:50.312Z,18.20
2018-10-07T02:11:52.550Z,18.20
2018-10-07T02:12:54.817Z,18.20
2018-10-07T02:13:57.104Z,18.10
2018-10-07T02:14:59.278Z,18.10
2018-10-07T02:16:01.654Z,18.10
2018-10-07T02:17:03.842Z,18.10
2018-10-07T02:18:06.164Z,18.10
2018-10-07T02:19:08.327Z,18.10
2018-10-07T02:20:10.555Z,18.10
2018-10-07T02:21:12.770Z,18.10
2018-10-07T02:22:14.972Z,18.00
2018-10-07T02:23:17.156Z,18.10
2018-10-07T02:24:19.344Z,18.00
2018-10-07T02:25:21.535Z,18.00
2018-10-07T02:26:23.769Z,18.00
2018-10-07T02:27:26.058Z,18.00
2018-10-07T02:28:28.237Z,18.00
2018-10-07T02:29:30.470Z,18.00
2018-10-07T02:30:32.702Z,18.00
2018-10-07T02:31:34.934Z,18.00
2018-10-07T02:32:37.118Z,18.00
2018-10-07T02:33:39.297Z,18.00
2018-10-07T02:34:41.536Z,18.00
2018-10-07T02:35:43.707Z,18.00
2018-10-07T02:36:45.884Z,18.00
2018-10-07T02:37:48.042Z,18.00
2018-10-07T02:38:50.220Z,17.90
2018-10-07T02:39:52.438Z,17.90
2018-10-07T02:40:54.602Z,17.90
2018-10-07T02:41:56.795Z,17.90
2018-10-07T02:42:58.969Z,17.90
2018-10-07T02:44:01.153Z,17.90
2018-10-07T02:45:03.406Z,17.90
2018-10-07T02:46:05.850Z,17.90
2018-10-07T02:47:08.028Z,17.90
2018-10-07T02:48:10.198Z,17.90
2018-10-07T02:49:12.357Z,17.90
2018-10-07T02:50:19.785Z,17.90
2018-10-07T02:51:22.041Z,17.80
2018-10-07T02:52:30.135Z,17.90
2018-10-07T02:53:32.348Z,17.90
2018-10-07T02:54:34.554Z,17.90
2018-10-07T02:55:36.820Z,17.90
2018-10-07T02:56:39.057Z,18.00
2018-10-07T02:57:41.258Z,17.90
2018-10-07T02:58:43.509Z,17.90
2018-10-07T02:59:46.326Z,17.90
2018-10-07T03:00:48.542Z,17.90
2018-10-07T03:01:50.737Z,17.90
2018-10-07T03:02:52.996Z,17.90
2018-10-07T03:03:55.321Z,17.90
2018-10-07T03:04:57.531Z,17.80
2018-10-07T03:05:59.738Z,17.80
2018-10-07T03:07:01.943Z,17.80
2018-10-07T03:08:04.122Z,17.80
2018-10-07T03:09:07.237Z,17.80
2018-10-07T03:10:09.796Z,17.80
2018-10-07T03:11:12.415Z,17.80
2018-10-07T03:12:14.717Z,17.70
2018-10-07T03:13:16.957Z,17.70
2018-10-07T03:14:19.216Z,17.70
2018-10-07T03:15:21.425Z,17.70
2018-10-07T03:16:23.709Z,17.70
2018-10-07T03:17:26.030Z,17.70
2018-10-07T03:18:28.290Z,17.70
2018-10-07T03:19:30.495Z,17.70
2018-10-07T03:20:32.652Z,17.60
2018-10-07T03:21:34.843Z,17.60
2018-10-07T03:22:37.172Z,17.60
2018-10-07T03:23:39.342Z,17.60
2018-10-07T03:24:41.515Z,17.60
2018-10-07T03:25:43.778Z,17.60
2018-10-07T03:26:45.967Z,17.60
2018-10-07T03:27:48.143Z,17.60
2018-10-07T03:28:50.453Z,17.60
2018-10-07T03:29:53.094Z,17.50
2018-10-07T03:30:55.262Z,17.50
2018-10-07T03:31:57.519Z,17.50
2018-10-07T03:32:59.682Z,17.50
2018-10-07T03:34:01.959Z,17.40
2018-10-07T03:35:04.232Z,17.40
2018-10-07T03:36:06.468Z,17.40
2018-10-07T03:37:08.659Z,17.40
2018-10-07T03:38:10.839Z,17.40
2018-10-07T03:39:13.054Z,17.30
2018-10-07T03:40:15.277Z,17.30
2018-10-07T03:41:17.983Z,17.30
2018-10-07T03:42:20.189Z,17.30
2018-10-07T03:43:22.422Z,17.40
2018-10-07T03:44:24.767Z,17.30
2018-10-07T03:45:27.047Z,17.30
2018-10-07T03:46:29.235Z,17.30
2018-10-07T03:47:31.415Z,17.50
2018-10-07T03:48:33.606Z,17.30
2018-10-07T03:49:36.126Z,17.30
2018-10-07T03:50:38.375Z,17.30
2018-10-07T03:51:40.585Z,17.30
2018-10-07T03:52:42.765Z,17.30
2018-10-07T03:53:45.023Z,17.20
2018-10-07T03:54:47.241Z,17.20
2018-10-07T03:55:49.513Z,17.20
2018-10-07T03:56:51.894Z,17.20
2018-10-07T03:57:54.092Z,17.20
2018-10-07T03:58:56.369Z,17.20
2018-10-07T03:59:59.184Z,17.20
2018-10-07T04:01:01.449Z,17.20
2018-10-07T04:02:03.689Z,17.20
2018-10-07T04:03:05.967Z,17.20
2018-10-07T04:04:08.166Z,17.20
2018-10-07T04:05:10.378Z,17.20
2018-10-07T04:06:12.558Z,17.20
2018-10-07T04:07:14.718Z,17.20
2018-10-07T04:08:16.951Z,17.20
2018-10-07T04:09:19.214Z,17.20
2018-10-07T04:10:21.529Z,17.20
2018-10-07T04:11:23.713Z,17.20
2018-10-07T04:12:25.972Z,17.20
2018-10-07T04:13:28.268Z,17.20
2018-10-07T04:14:30.434Z,17.10
2018-10-07T04:15:32.649Z,17.10
2018-10-07T04:16:35.040Z,17.10
2018-10-07T04:17:37.207Z,17.10
2018-10-07T04:18:39.381Z,17.10
2018-10-07T04:19:41.541Z,17.10
2018-10-07T04:20:43.988Z,17.10
2018-10-07T04:21:55.892Z,17.00
2018-10-07T04:22:58.082Z,17.00
2018-10-07T04:24:00.357Z,17.10
2018-10-07T04:25:02.624Z,17.20
2018-10-07T04:26:04.853Z,17.00
2018-10-07T04:27:07.067Z,17.00
2018-10-07T04:28:09.230Z,17.00
2018-10-07T04:29:11.414Z,17.00
2018-10-07T04:30:13.613Z,17.00
2018-10-07T04:31:15.804Z,17.00
2018-10-07T04:32:17.954Z,17.00
2018-10-07T04:33:20.118Z,17.00
2018-10-07T04:34:22.369Z,17.00
2018-10-07T04:35:24.567Z,17.00
2018-10-07T04:36:26.855Z,17.00
2018-10-07T04:37:29.024Z,17.00
2018-10-07T04:38:31.214Z,16.90
2018-10-07T04:39:33.425Z,17.10
2018-10-07T04:40:35.633Z,17.00
2018-10-07T04:41:37.881Z,17.00
2018-10-07T04:42:40.126Z,17.00
2018-10-07T04:43:42.400Z,17.00
2018-10-07T04:44:44.568Z,17.00
2018-10-07T04:45:46.750Z,17.00
2018-10-07T04:46:48.959Z,17.00
2018-10-07T04:47:51.188Z,17.00
2018-10-07T04:48:53.380Z,17.00
2018-10-07T04:49:55.677Z,17.00
2018-10-07T04:50:57.941Z,17.00
2018-10-07T04:52:00.127Z,16.90
2018-10-07T04:53:02.317Z,16.90
2018-10-07T04:54:04.645Z,16.90
2018-10-07T04:55:06.867Z,16.90
2018-10-07T04:56:09.029Z,16.90
2018-10-07T04:57:11.236Z,16.90
2018-10-07T04:58:13.649Z,16.90
2018-10-07T04:59:15.854Z,16.90
2018-10-07T05:00:18.153Z,16.90
2018-10-07T05:01:20.226Z,16.90
2018-10-07T05:02:22.385Z,16.90
2018-10-07T05:03:24.809Z,16.80
2018-10-07T05:04:27.217Z,16.80
2018-10-07T05:05:29.435Z,16.80
2018-10-07T05:06:32.758Z,16.80
2018-10-07T05:07:34.966Z,16.80
2018-10-07T05:08:37.345Z,16.80
2018-10-07T05:09:39.580Z,16.70
2018-10-07T05:10:46.973Z,16.70
2018-10-07T05:11:49.830Z,16.70
2018-10-07T05:12:52.021Z,16.70
2018-10-07T05:13:55.376Z,16.70
2018-10-07T05:14:57.659Z,16.70
2018-10-07T05:16:02.143Z,16.70
2018-10-07T05:17:04.421Z,16.70
2018-10-07T05:18:08.284Z,16.70
2018-10-07T05:19:10.477Z,16.70
2018-10-07T05:20:12.699Z,16.60
2018-10-07T05:21:14.925Z,16.60
2018-10-07T05:22:17.140Z,16.60
2018-10-07T05:23:19.765Z,16.60
2018-10-07T05:24:22.034Z,16.60
2018-10-07T05:25:24.293Z,16.60
2018-10-07T05:26:27.373Z,16.60
2018-10-07T05:27:29.615Z,16.60
2018-10-07T05:28:31.872Z,16.60
2018-10-07T05:29:34.102Z,16.50
2018-10-07T05:30:36.441Z,16.50
2018-10-07T05:31:38.689Z,16.50
2018-10-07T05:32:40.914Z,16.50
2018-10-07T05:33:43.128Z,16.50
2018-10-07T05:34:45.393Z,16.50
2018-10-07T05:35:47.638Z,16.50
2018-10-07T05:36:50.253Z,16.50
2018-10-07T05:37:52.417Z,16.50
2018-10-07T05:38:54.645Z,16.50
2018-10-07T05:39:57.011Z,16.50
2018-10-07T05:40:59.203Z,16.50
2018-10-07T05:42:01.708Z,16.40
2018-10-07T05:43:03.963Z,16.40
2018-10-07T05:44:06.186Z,16.40
2018-10-07T05:45:08.913Z,16.40
2018-10-07T05:46:11.338Z,16.40
2018-10-07T05:47:13.505Z,16.40
2018-10-07T05:48:15.731Z,16.40
2018-10-07T05:49:17.939Z,16.40
2018-10-07T05:50:20.174Z,16.40
2018-10-07T05:51:22.377Z,16.50
2018-10-07T05:52:24.557Z,16.40
2018-10-07T05:53:26.786Z,16.40
2018-10-07T05:54:29.250Z,16.40
2018-10-07T05:55:31.655Z,16.40
2018-10-07T05:56:33.829Z,16.40
2018-10-07T05:57:36.083Z,16.40
2018-10-07T05:58:39.001Z,16.40
2018-10-07T05:59:41.232Z,16.40
2018-10-07T06:00:43.936Z,16.40
2018-10-07T06:01:46.179Z,16.40
2018-10-07T06:02:48.322Z,16.30
2018-10-07T06:03:54.460Z,16.30
2018-10-07T06:04:57.158Z,16.30
2018-10-07T06:05:59.409Z,16.30
2018-10-07T06:07:02.648Z,16.30
2018-10-07T06:08:04.938Z,16.30
2018-10-07T06:09:10.146Z,16.30
2018-10-07T06:10:12.483Z,16.30
2018-10-07T06:11:14.666Z,16.30
2018-10-07T06:12:17.042Z,16.30
2018-10-07T06:13:19.262Z,16.30
2018-10-07T06:14:32.978Z,16.40
2018-10-07T06:15:36.661Z,16.40
2018-10-07T06:16:38.886Z,16.40
2018-10-07T06:17:41.100Z,16.40
2018-10-07T06:18:43.354Z,16.40
2018-10-07T06:19:45.620Z,16.40
2018-10-07T06:20:47.880Z,16.40
2018-10-07T06:21:50.112Z,16.40
2018-10-07T06:22:52.402Z,16.50
2018-10-07T06:23:54.611Z,16.50
2018-10-07T06:24:56.814Z,16.50
2018-10-07T06:25:59.005Z,16.50
2018-10-07T06:27:01.256Z,16.50
2018-10-07T06:28:03.467Z,16.50
2018-10-07T06:29:05.650Z,16.50
2018-10-07T06:30:07.865Z,16.50
2018-10-07T06:31:10.125Z,16.50
2018-10-07T06:32:12.385Z,16.50
2018-10-07T06:33:14.599Z,16.60
2018-10-07T06:34:16.852Z,16.60
2018-10-07T06:35:19.152Z,16.60
2018-10-07T06:36:21.374Z,16.60
2018-10-07T06:37:23.599Z,16.60
2018-10-07T06:38:26.415Z,16.60
2018-10-07T06:39:28.791Z,16.60
2018-10-07T06:40:31.075Z,16.60
2018-10-07T06:41:33.394Z,16.60
2018-10-07T06:42:36.290Z,16.60
2018-10-07T06:43:38.493Z,16.60
2018-10-07T06:44:40.687Z,16.50
2018-10-07T06:45:42.867Z,16.50
2018-10-07T06:46:45.090Z,16.50
2018-10-07T06:47:47.503Z,16.40
2018-10-07T06:48:49.758Z,16.50
2018-10-07T06:49:51.929Z,16.50
2018-10-07T06:50:54.103Z,16.40
2018-10-07T06:51:56.334Z,16.50
2018-10-07T06:52:58.576Z,16.50
2018-10-07T06:54:00.759Z,16.50
2018-10-07T06:55:03.011Z,16.50
2018-10-07T06:56:05.166Z,16.50
2018-10-07T06:57:07.362Z,16.50
2018-10-07T06:58:09.725Z,16.50
2018-10-07T06:59:11.946Z,16.50
2018-10-07T07:00:14.110Z,16.60
2018-10-07T07:01:16.321Z,16.60
2018-10-07T07:02:18.577Z,16.60
2018-10-07T07:03:20.764Z,16.60
2018-10-07T07:04:22.948Z,16.70
2018-10-07T07:05:25.176Z,16.70
2018-10-07T07:06:27.484Z,16.70
2018-10-07T07:07:29.767Z,16.60
2018-10-07T07:08:32.077Z,16.70
2018-10-07T07:09:34.430Z,16.70
2018-10-07T07:10:36.631Z,16.80
2018-10-07T07:11:39.112Z,16.80
2018-10-07T07:12:41.376Z,16.80
2018-10-07T07:13:43.668Z,16.90
2018-10-07T07:14:45.925Z,16.90
2018-10-07T07:15:48.180Z,16.90
2018-10-07T07:16:50.370Z,16.90
2018-10-07T07:17:52.527Z,16.90
2018-10-07T07:18:54.723Z,16.90
2018-10-07T07:19:56.998Z,16.90
2018-10-07T07:20:59.149Z,16.90
2018-10-07T07:22:01.353Z,17.00
2018-10-07T07:23:03.511Z,17.00
2018-10-07T07:24:05.703Z,17.00
2018-10-07T07:25:07.947Z,17.00
2018-10-07T07:26:10.369Z,17.10
2018-10-07T07:27:12.557Z,17.10
2018-10-07T07:28:14.736Z,17.10
2018-10-07T07:29:16.941Z,17.10
2018-10-07T07:30:19.152Z,17.10
2018-10-07T07:31:21.372Z,17.20
2018-10-07T07:32:23.555Z,17.10
2018-10-07T07:33:25.764Z,17.20
2018-10-07T07:34:27.933Z,17.20
2018-10-07T07:35:30.123Z,17.20
2018-10-07T07:36:32.302Z,17.20
2018-10-07T07:37:34.465Z,17.30
2018-10-07T07:38:36.758Z,17.30
2018-10-07T07:39:38.963Z,17.30
2018-10-07T07:40:41.147Z,17.40
2018-10-07T07:41:43.382Z,17.40
2018-10-07T07:42:45.601Z,17.50
2018-10-07T07:43:47.877Z,17.50
2018-10-07T07:44:50.181Z,17.50
2018-10-07T07:45:52.486Z,17.60
2018-10-07T07:46:54.689Z,17.60
2018-10-07T07:47:56.865Z,17.60
2018-10-07T07:48:59.564Z,17.60
2018-10-07T07:50:01.805Z,17.60
2018-10-07T07:51:04.175Z,17.60
2018-10-07T07:52:06.666Z,17.70
2018-10-07T07:53:08.909Z,17.70
2018-10-07T07:54:11.194Z,17.70
2018-10-07T07:55:13.428Z,17.80
2018-10-07T07:56:15.580Z,17.80
2018-10-07T07:57:17.812Z,17.80
2018-10-07T07:58:20.073Z,17.80
2018-10-07T07:59:22.257Z,17.80
2018-10-07T08:00:24.448Z,17.90
2018-10-07T08:01:26.652Z,17.90
2018-10-07T08:02:29.782Z,17.90
2018-10-07T08:03:31.959Z,17.90
2018-10-07T08:04:34.151Z,17.90
2018-10-07T08:05:36.329Z,17.90
2018-10-07T08:06:38.637Z,17.90
2018-10-07T08:07:40.822Z,17.90
2018-10-07T08:08:43.116Z,18.00
2018-10-07T08:09:45.289Z,18.00
2018-10-07T08:10:47.501Z,18.00
2018-10-07T08:11:49.760Z,18.00
2018-10-07T08:12:51.951Z,18.10
2018-10-07T08:13:54.186Z,18.10
2018-10-07T08:14:56.373Z,18.10
2018-10-07T08:15:58.605Z,18.10
2018-10-07T08:17:00.813Z,18.10
2018-10-07T08:18:03.034Z,18.20
2018-10-07T08:19:05.276Z,18.10
2018-10-07T08:20:07.489Z,18.20
2018-10-07T08:21:09.700Z,18.20
2018-10-07T08:22:12.130Z,18.20
2018-10-07T08:23:14.356Z,18.20
2018-10-07T08:24:16.537Z,18.20
2018-10-07T08:25:18.762Z,18.20
2018-10-07T08:26:21.512Z,18.20
2018-10-07T08:27:23.742Z,18.20
2018-10-07T08:28:25.990Z,18.20
2018-10-07T08:29:28.247Z,18.30
2018-10-07T08:30:31.397Z,18.30
2018-10-07T08:31:33.689Z,18.30
2018-10-07T08:32:35.933Z,18.40
2018-10-07T08:33:38.165Z,18.40
2018-10-07T08:34:40.783Z,18.40
2018-10-07T08:35:43.168Z,18.40
2018-10-07T08:36:45.358Z,18.50
2018-10-07T08:37:47.504Z,18.50
2018-10-07T08:38:49.654Z,18.50
2018-10-07T08:39:52.013Z,18.50
2018-10-07T08:40:54.160Z,18.60
2018-10-07T08:41:56.377Z,18.60
2018-10-07T08:42:58.578Z,18.60
2018-10-07T08:44:00.847Z,18.60
2018-10-07T08:45:03.181Z,18.70
2018-10-07T08:46:05.419Z,18.70
2018-10-07T08:47:08.229Z,18.80
2018-10-07T08:48:10.439Z,18.80
2018-10-07T08:49:12.701Z,18.90
2018-10-07T08:50:15.184Z,18.90
2018-10-07T08:51:17.347Z,19.00
2018-10-07T08:52:19.520Z,19.00
2018-10-07T08:53:21.788Z,19.10
2018-10-07T08:54:23.951Z,19.10
2018-10-07T08:55:26.472Z,19.10
2018-10-07T08:56:28.745Z,19.10
2018-10-07T08:57:30.938Z,19.20
2018-10-07T08:58:33.205Z,19.20
2018-10-07T08:59:35.418Z,19.20
2018-10-07T09:00:37.706Z,19.30
2018-10-07T09:01:39.886Z,19.30
2018-10-07T09:02:42.067Z,19.30
2018-10-07T09:03:44.486Z,19.40
2018-10-07T09:04:46.687Z,19.40
2018-10-07T09:05:48.925Z,19.40
2018-10-07T09:06:51.318Z,19.50
2018-10-07T09:07:53.507Z,19.50
2018-10-07T09:08:55.796Z,19.60
2018-10-07T09:09:57.992Z,19.60
2018-10-07T09:11:00.313Z,19.60
2018-10-07T09:12:02.570Z,19.70
2018-10-07T09:13:04.830Z,19.70
2018-10-07T09:14:07.093Z,19.80
2018-10-07T09:15:09.350Z,19.80
2018-10-07T09:16:11.521Z,19.80
2018-10-07T09:17:13.697Z,19.80
2018-10-07T09:18:15.905Z,19.80
2018-10-07T09:19:18.077Z,19.90
2018-10-07T09:20:20.246Z,19.90
2018-10-07T09:21:22.457Z,20.00
2018-10-07T09:22:24.669Z,20.00
2018-10-07T09:23:26.896Z,20.00
2018-10-07T09:24:29.081Z,20.00
2018-10-07T09:25:31.328Z,20.00
2018-10-07T09:26:33.533Z,20.10
2018-10-07T09:27:35.830Z,20.10
2018-10-07T09:28:38.046Z,19.90
2018-10-07T09:29:40.282Z,20.10
2018-10-07T09:30:42.454Z,20.10
2018-10-07T09:31:44.802Z,20.10
2018-10-07T09:32:47.051Z,20.10
2018-10-07T09:33:49.184Z,20.20
2018-10-07T09:34:51.428Z,20.20
2018-10-07T09:35:53.602Z,20.30
2018-10-07T09:36:55.813Z,20.20
2018-10-07T09:37:58.066Z,20.30
2018-10-07T09:39:00.283Z,20.20
2018-10-07T09:40:02.453Z,20.20
2018-10-07T09:41:04.704Z,20.30
2018-10-07T09:42:06.863Z,20.30
2018-10-07T09:43:09.034Z,20.30
2018-10-07T09:44:11.229Z,20.30
2018-10-07T09:45:13.685Z,20.30
2018-10-07T09:46:15.965Z,20.40
2018-10-07T09:47:18.209Z,20.40
2018-10-07T09:48:20.332Z,20.30
2018-10-07T09:49:22.702Z,20.30
2018-10-07T09:50:24.901Z,20.30
2018-10-07T09:51:27.045Z,20.30
2018-10-07T09:52:29.597Z,20.40
2018-10-07T09:53:31.710Z,20.40
2018-10-07T09:54:34.030Z,20.40
2018-10-07T09:55:36.304Z,20.40
2018-10-07T09:56:38.481Z,20.40
2018-10-07T09:57:40.713Z,20.30
2018-10-07T09:58:42.931Z,20.30
2018-10-07T09:59:45.187Z,20.40
2018-10-07T10:00:47.664Z,20.30
2018-10-07T10:01:49.930Z,20.30
2018-10-07T10:02:52.218Z,20.30
2018-10-07T10:03:54.441Z,20.30
2018-10-07T10:04:56.629Z,20.30
2018-10-07T10:05:58.861Z,20.30
2018-10-07T10:07:01.096Z,20.30
2018-10-07T10:08:03.340Z,20.30
2018-10-07T10:09:07.030Z,20.40
2018-10-07T10:10:09.218Z,20.40
2018-10-07T10:11:11.673Z,20.40
2018-10-07T10:12:13.858Z,20.40
2018-10-07T10:13:16.085Z,20.50
2018-10-07T10:14:18.637Z,20.50
2018-10-07T10:15:20.797Z,20.50
2018-10-07T10:16:32.413Z,20.50
2018-10-07T10:17:34.811Z,20.50
2018-10-07T10:18:44.690Z,20.50
2018-10-07T10:20:08.895Z,20.50
2018-10-07T10:21:37.316Z,20.50
2018-10-07T10:23:51.437Z,20.50
2018-10-07T10:25:01.707Z,20.50
2018-10-07T10:26:11.726Z,20.50
2018-10-07T10:28:32.474Z,20.50
2018-10-07T10:29:40.038Z,20.40
2018-10-07T10:30:55.931Z,20.40
2018-10-07T10:32:06.130Z,20.40
2018-10-07T10:33:14.463Z,20.40
2018-10-07T10:34:59.547Z,20.40
2018-10-07T10:36:42.067Z,20.40
2018-10-07T10:38:42.734Z,20.40
2018-10-07T10:39:50.052Z,20.40
2018-10-07T10:40:56.178Z,20.40
2018-10-07T10:42:03.947Z,20.40
2018-10-07T10:43:14.197Z,20.40
2018-10-07T10:44:25.859Z,20.50
2018-10-07T10:45:35.492Z,20.50
2018-10-07T10:47:00.233Z,20.50
2018-10-07T10:49:08.264Z,20.50
2018-10-07T10:51:48.367Z,20.60
2018-10-07T10:53:08.828Z,20.60
2018-10-07T10:54:15.834Z,20.70
2018-10-07T10:55:46.108Z,20.70
2018-10-07T10:56:53.994Z,20.70
2018-10-07T10:57:59.254Z,20.70
2018-10-07T10:59:10.253Z,20.80
2018-10-07T11:00:16.790Z,20.90
2018-10-07T11:01:23.082Z,20.80
2018-10-07T11:02:34.422Z,20.90
2018-10-07T18:24:01.655Z,19.30
2018-10-07T18:25:04.002Z,19.20
2018-10-07T18:26:06.221Z,19.20
2018-10-07T18:27:08.466Z,19.30
2018-10-07T18:28:10.646Z,19.30
2018-10-07T18:29:12.886Z,19.40
2018-10-07T18:30:15.122Z,19.40
2018-10-07T18:31:17.456Z,19.50
2018-10-07T18:32:19.678Z,19.60
2018-10-07T18:33:21.845Z,19.60
2018-10-07T18:34:24.150Z,19.70
2018-10-07T18:35:26.405Z,19.80
2018-10-07T18:36:28.630Z,19.80
2018-10-07T18:37:30.817Z,19.90
2018-10-07T18:38:33.102Z,20.00
2018-10-07T18:39:35.314Z,20.10
2018-10-07T18:40:37.705Z,20.10
2018-10-07T18:41:40.073Z,20.10
2018-10-07T18:42:42.280Z,20.20
2018-10-07T18:43:44.593Z,20.20
2018-10-07T18:44:46.806Z,20.20
2018-10-07T18:45:49.059Z,20.20
2018-10-07T18:46:51.337Z,20.20
2018-10-07T18:47:53.585Z,20.30
2018-10-07T18:48:55.982Z,20.30
2018-10-07T18:49:58.100Z,20.30
2018-10-07T18:51:00.360Z,20.30
2018-10-07T18:52:02.576Z,20.20
2018-10-07T18:53:04.814Z,20.30
2018-10-07T18:54:07.043Z,20.30
2018-10-07T18:55:09.359Z,20.30
2018-10-07T18:56:11.598Z,20.30
2018-10-07T18:57:13.837Z,20.30
2018-10-07T18:58:15.994Z,20.30
2018-10-07T18:59:18.343Z,20.30
2018-10-07T19:00:20.636Z,20.30
2018-10-07T19:01:22.856Z,20.30
2018-10-07T19:02:25.114Z,20.30
2018-10-07T19:03:27.276Z,20.30
2018-10-07T19:04:29.469Z,20.30
2018-10-07T19:05:31.700Z,20.30
2018-10-07T19:06:33.933Z,20.30
2018-10-07T19:07:36.114Z,20.30
2018-10-07T19:08:38.398Z,20.20
2018-10-07T19:09:40.509Z,20.20
2018-10-07T19:10:43.076Z,20.20
2018-10-07T19:11:45.599Z,20.20
2018-10-07T19:12:48.023Z,20.20
2018-10-07T19:13:50.220Z,20.20
2018-10-07T19:14:52.391Z,20.10
2018-10-07T19:15:54.595Z,20.20
2018-10-07T19:16:57.184Z,20.10
2018-10-07T19:17:59.340Z,20.10
2018-10-07T19:19:01.501Z,20.10
2018-10-07T19:20:03.866Z,20.10
2018-10-07T19:21:06.220Z,20.10
2018-10-07T19:22:08.233Z,20.10
2018-10-07T19:23:10.454Z,20.10
2018-10-07T19:24:12.609Z,20.10
2018-10-07T19:25:14.740Z,20.10
2018-10-07T19:26:16.882Z,20.10
2018-10-07T19:27:19.017Z,20.10
2018-10-07T19:28:21.297Z,20.10
2018-10-07T19:29:23.486Z,20.10
2018-10-07T19:30:25.698Z,20.10
2018-10-07T19:31:27.845Z,20.10
2018-10-07T19:32:30.016Z,20.00
2018-10-07T19:33:32.173Z,20.00
2018-10-07T19:34:34.349Z,20.00
2018-10-07T19:35:36.477Z,20.00
2018-10-07T19:36:38.668Z,20.00
2018-10-07T19:37:40.809Z,20.00
2018-10-07T19:38:42.971Z,20.00
2018-10-07T19:39:45.110Z,20.00
2018-10-07T19:40:47.259Z,20.00
2018-10-07T19:41:49.442Z,20.00
2018-10-07T19:42:51.599Z,20.00
2018-10-07T19:43:53.754Z,20.00
2018-10-07T19:44:55.961Z,19.90
2018-10-07T19:45:58.146Z,19.90
2018-10-07T19:47:00.304Z,19.90
2018-10-07T19:48:02.433Z,19.90
2018-10-07T19:49:04.751Z,19.90
2018-10-07T19:50:06.958Z,19.90
2018-10-07T19:51:09.142Z,19.80
2018-10-07T19:52:11.313Z,19.80
2018-10-07T19:53:13.470Z,19.80
2018-10-07T19:54:15.630Z,19.80
2018-10-07T19:55:17.873Z,19.80
2018-10-07T19:56:20.029Z,19.80
2018-10-07T19:57:22.174Z,19.80
2018-10-07T19:58:24.552Z,19.80
2018-10-07T19:59:26.689Z,19.80
2018-10-07T20:00:28.829Z,19.80
2018-10-07T20:01:30.975Z,19.70
2018-10-07T20:02:33.117Z,19.70
2018-10-07T20:03:35.276Z,19.70
2018-10-07T20:04:37.464Z,19.70
2018-10-07T20:05:39.646Z,19.70
2018-10-07T20:06:41.803Z,19.70
2018-10-07T20:07:43.957Z,19.70
2018-10-07T20:08:46.172Z,19.70
2018-10-07T20:09:48.350Z,19.70
2018-10-07T20:10:50.502Z,19.70
2018-10-07T20:11:52.654Z,19.70
2018-10-07T20:12:54.869Z,19.60
2018-10-07T20:13:57.006Z,19.60
2018-10-07T20:14:59.164Z,19.50
2018-10-07T20:16:01.342Z,19.60
2018-10-07T20:17:03.509Z,19.60
2018-10-07T20:18:05.674Z,19.50
2018-10-07T20:19:08.040Z,19.50
2018-10-07T20:20:10.223Z,19.50
2018-10-07T20:21:12.372Z,19.40
2018-10-07T20:22:16.030Z,19.40
2018-10-07T20:23:18.169Z,19.40
2018-10-07T20:24:20.314Z,19.40
2018-10-07T20:25:22.486Z,19.40
2018-10-07T20:26:24.765Z,19.40
2018-10-07T20:27:26.846Z,19.30
2018-10-07T20:28:28.990Z,19.30
2018-10-07T20:29:31.209Z,19.30
2018-10-07T20:30:33.561Z,19.30
2018-10-07T20:31:41.392Z,19.30
2018-10-07T20:32:46.036Z,19.30
2018-10-07T20:33:50.140Z,19.20
2018-10-07T20:34:52.368Z,19.20
2018-10-07T20:35:54.573Z,19.00
2018-10-07T20:37:05.861Z,19.20
2018-10-07T20:38:08.195Z,19.10
2018-10-07T20:39:12.525Z,19.10
2018-10-07T20:40:14.800Z,19.10
2018-10-07T20:41:19.996Z,19.00
2018-10-07T20:43:42.609Z,19.00
2018-10-07T20:48:25.783Z,19.00
2018-10-07T20:52:24.192Z,19.00
2018-10-07T20:53:27.123Z,18.80
2018-10-07T20:54:30.805Z,18.70
2018-10-07T20:55:33.822Z,18.60
2018-10-07T20:56:37.027Z,18.60
2018-10-07T20:57:40.518Z,18.60
2018-10-07T20:58:42.717Z,18.60
2018-10-07T20:59:44.917Z,18.50
2018-10-07T21:00:47.085Z,18.50
2018-10-07T21:01:49.317Z,18.50
2018-10-07T21:02:51.614Z,18.40